sensor_id;sensor_type;location;lat;lon;timestamp;pressure;altitude;pressure_sealevel;temperature;humidity
17260;BME280;8746;49.230;9.220;2023-09-19T00:00:34;99424.88;;;15.66;100.00
17260;BME280;8746;49.230;9.220;2023-09-19T00:02:59;99412.75;;;15.62;100.00
17260;BME280;8746;49.230;9.220;2023-09-19T00:05:26;99416.56;;;15.70;100.00
17260;BME280;8746;49.230;9.220;2023-09-19T00:07:56;99421.25;;;15.67;100.00
17260;BME280;8746;49.230;9.220;2023-09-19T00:10:24;99424.88;;;15.66;100.00
17260;BME280;8746;49.230;9.220;2023-09-19T00:12:55;99410.63;;;15.67;100.00
17260;BME280;8746;49.230;9.220;2023-09-19T00:15:24;99414.88;;;15.69;100.00
17260;BME280;8746;49.230;9.220;2023-09-19T00:17:52;99419.56;;;15.66;100.00
17260;BME280;8746;49.230;9.220;2023-09-19T00:20:20;99418.81;;;15.64;100.00
17260;BME280;8746;49.230;9.220;2023-09-19T00:22:48;99417.88;;;15.65;100.00
17260;BME280;8746;49.230;9.220;2023-09-19T00:25:14;99416.38;;;15.61;100.00
17260;BME280;8746;49.230;9.220;2023-09-19T00:27:41;99420.09;;;15.58;100.00
17260;BME280;8746;49.230;9.220;2023-09-19T00:30:08;99423.63;;;15.59;100.00
17260;BME280;8746;49.230;9.220;2023-09-19T00:32:39;99423.81;;;15.55;100.00
17260;BME280;8746;49.230;9.220;2023-09-19T00:35:05;99422.88;;;15.57;100.00
17260;BME280;8746;49.230;9.220;2023-09-19T00:37:30;99433.50;;;15.57;100.00
17260;BME280;8746;49.230;9.220;2023-09-19T00:39:56;99425.72;;;15.53;100.00
17260;BME280;8746;49.230;9.220;2023-09-19T00:42:21;99424.06;;;15.52;100.00
17260;BME280;8746;49.230;9.220;2023-09-19T00:44:47;99435.00;;;15.48;100.00
17260;BME280;8746;49.230;9.220;2023-09-19T00:47:17;99431.47;;;15.47;100.00
17260;BME280;8746;49.230;9.220;2023-09-19T00:49:43;99445.50;;;15.49;100.00
17260;BME280;8746;49.230;9.220;2023-09-19T00:52:10;99437.53;;;15.49;100.00
17260;BME280;8746;49.230;9.220;2023-09-19T00:54:36;99435.84;;;15.48;100.00
17260;BME280;8746;49.230;9.220;2023-09-19T00:57:02;99444.22;;;15.42;100.00
17260;BME280;8746;49.230;9.220;2023-09-19T00:59:28;99447.66;;;15.44;100.00
17260;BME280;8746;49.230;9.220;2023-09-19T01:01:56;99450.50;;;15.41;100.00
17260;BME280;8746;49.230;9.220;2023-09-19T01:04:22;99458.16;;;15.46;100.00
17260;BME280;8746;49.230;9.220;2023-09-19T01:06:48;99458.59;;;15.52;100.00
17260;BME280;8746;49.230;9.220;2023-09-19T01:09:18;99467.19;;;15.56;100.00
17260;BME280;8746;49.230;9.220;2023-09-19T01:11:46;99458.81;;;15.62;100.00
17260;BME280;8746;49.230;9.220;2023-09-19T01:14:21;99458.91;;;15.61;100.00
17260;BME280;8746;49.230;9.220;2023-09-19T01:16:55;99472.13;;;15.62;100.00
17260;BME280;8746;49.230;9.220;2023-09-19T01:22:13;99473.38;;;15.69;100.00
17260;BME280;8746;49.230;9.220;2023-09-19T01:30:32;99474.44;;;15.67;100.00
17260;BME280;8746;49.230;9.220;2023-09-19T01:32:59;99465.75;;;15.65;100.00
17260;BME280;8746;49.230;9.220;2023-09-19T01:35:24;99480.63;;;15.67;100.00
17260;BME280;8746;49.230;9.220;2023-09-19T01:37:50;99480.72;;;15.66;100.00
17260;BME280;8746;49.230;9.220;2023-09-19T01:40:18;99474.00;;;15.73;100.00
17260;BME280;8746;49.230;9.220;2023-09-19T01:45:33;99477.44;;;15.75;100.00
17260;BME280;8746;49.230;9.220;2023-09-19T01:51:03;99483.09;;;15.83;100.00
17260;BME280;8746;49.230;9.220;2023-09-19T01:53:40;99478.53;;;15.85;100.00
17260;BME280;8746;49.230;9.220;2023-09-19T01:56:12;99482.16;;;15.84;100.00
17260;BME280;8746;49.230;9.220;2023-09-19T01:58:46;99488.31;;;15.85;100.00
17260;BME280;8746;49.230;9.220;2023-09-19T02:01:17;99485.53;;;15.86;100.00
17260;BME280;8746;49.230;9.220;2023-09-19T02:03:44;99489.19;;;15.85;100.00
17260;BME280;8746;49.230;9.220;2023-09-19T02:06:17;99487.03;;;15.91;100.00
17260;BME280;8746;49.230;9.220;2023-09-19T02:08:44;99493.19;;;15.91;100.00
17260;BME280;8746;49.230;9.220;2023-09-19T02:11:11;99487.13;;;15.89;100.00
17260;BME280;8746;49.230;9.220;2023-09-19T02:13:37;99480.97;;;15.89;100.00
17260;BME280;8746;49.230;9.220;2023-09-19T02:16:03;99488.59;;;15.80;100.00
17260;BME280;8746;49.230;9.220;2023-09-19T02:18:29;99496.78;;;15.77;100.00
17260;BME280;8746;49.230;9.220;2023-09-19T02:20:55;99501.16;;;15.78;100.00
17260;BME280;8746;49.230;9.220;2023-09-19T02:23:21;99510.09;;;15.77;100.00
17260;BME280;8746;49.230;9.220;2023-09-19T02:25:54;99503.81;;;15.78;100.00
17260;BME280;8746;49.230;9.220;2023-09-19T02:28:22;99507.22;;;15.80;100.00
17260;BME280;8746;49.230;9.220;2023-09-19T02:30:48;99512.53;;;15.80;100.00
17260;BME280;8746;49.230;9.220;2023-09-19T02:33:14;99509.34;;;15.75;100.00
17260;BME280;8746;49.230;9.220;2023-09-19T02:35:39;99520.81;;;15.76;100.00
17260;BME280;8746;49.230;9.220;2023-09-19T02:38:05;99522.88;;;15.72;100.00
17260;BME280;8746;49.230;9.220;2023-09-19T02:40:32;99519.22;;;15.73;100.00
17260;BME280;8746;49.230;9.220;2023-09-19T02:43:01;99516.03;;;15.68;100.00
17260;BME280;8746;49.230;9.220;2023-09-19T02:45:27;99515.63;;;15.61;100.00
17260;BME280;8746;49.230;9.220;2023-09-19T02:47:53;99512.63;;;15.66;100.00
17260;BME280;8746;49.230;9.220;2023-09-19T02:50:20;99514.78;;;15.74;100.00
17260;BME280;8746;49.230;9.220;2023-09-19T02:52:46;99517.53;;;15.72;100.00
17260;BME280;8746;49.230;9.220;2023-09-19T02:55:16;99519.13;;;15.75;100.00
17260;BME280;8746;49.230;9.220;2023-09-19T02:57:53;99520.81;;;15.76;100.00
17260;BME280;8746;49.230;9.220;2023-09-19T03:00:22;99525.28;;;15.75;100.00
17260;BME280;8746;49.230;9.220;2023-09-19T03:02:52;99522.22;;;15.81;100.00
17260;BME280;8746;49.230;9.220;2023-09-19T03:05:18;99519.81;;;15.91;100.00
17260;BME280;8746;49.230;9.220;2023-09-19T03:07:44;99522.22;;;15.81;100.00
17260;BME280;8746;49.230;9.220;2023-09-19T03:10:12;99533.34;;;15.88;100.00
17260;BME280;8746;49.230;9.220;2023-09-19T03:12:37;99527.13;;;15.88;100.00
17260;BME280;8746;49.230;9.220;2023-09-19T03:15:05;99525.53;;;15.85;100.00
17260;BME280;8746;49.230;9.220;2023-09-19T03:17:31;99535.56;;;15.94;100.00
17260;BME280;8746;49.230;9.220;2023-09-19T03:19:57;99539.38;;;16.03;100.00
17260;BME280;8746;49.230;9.220;2023-09-19T03:22:23;99534.25;;;16.00;100.00
17260;BME280;8746;49.230;9.220;2023-09-19T03:24:50;99541.38;;;16.12;100.00
17260;BME280;8746;49.230;9.220;2023-09-19T03:27:15;99544.28;;;16.09;100.00
17260;BME280;8746;49.230;9.220;2023-09-19T03:29:41;99547.78;;;16.10;100.00
17260;BME280;8746;49.230;9.220;2023-09-19T03:32:07;99553.75;;;16.13;100.00
17260;BME280;8746;49.230;9.220;2023-09-19T03:34:38;99553.03;;;16.11;100.00
17260;BME280;8746;49.230;9.220;2023-09-19T03:37:08;99556.63;;;16.10;100.00
17260;BME280;8746;49.230;9.220;2023-09-19T03:39:34;99553.09;;;16.10;100.00
17260;BME280;8746;49.230;9.220;2023-09-19T03:42:01;99552.38;;;16.08;100.00
17260;BME280;8746;49.230;9.220;2023-09-19T03:44:26;99544.06;;;16.12;100.00
17260;BME280;8746;49.230;9.220;2023-09-19T03:46:51;99551.94;;;16.14;100.00
17260;BME280;8746;49.230;9.220;2023-09-19T03:49:16;99557.34;;;16.12;100.00
17260;BME280;8746;49.230;9.220;2023-09-19T03:51:42;99560.00;;;16.12;100.00
17260;BME280;8746;49.230;9.220;2023-09-19T03:54:08;99557.59;;;16.09;100.00
17260;BME280;8746;49.230;9.220;2023-09-19T03:56:33;99560.25;;;16.09;100.00
17260;BME280;8746;49.230;9.220;2023-09-19T03:58:58;99561.19;;;16.08;100.00
17260;BME280;8746;49.230;9.220;2023-09-19T04:01:24;99551.50;;;16.07;100.00
17260;BME280;8746;49.230;9.220;2023-09-19T04:03:49;99558.53;;;16.08;100.00
17260;BME280;8746;49.230;9.220;2023-09-19T04:06:17;99563.03;;;16.08;100.00
17260;BME280;8746;49.230;9.220;2023-09-19T04:08:43;99555.88;;;16.08;100.00
17260;BME280;8746;49.230;9.220;2023-09-19T04:11:09;99552.47;;;16.06;100.00
17260;BME280;8746;49.230;9.220;2023-09-19T04:13:35;99557.06;;;16.04;100.00
17260;BME280;8746;49.230;9.220;2023-09-19T04:16:01;99557.06;;;16.04;100.00
17260;BME280;8746;49.230;9.220;2023-09-19T04:18:29;99554.72;;;15.99;100.00
17260;BME280;8746;49.230;9.220;2023-09-19T04:20:56;99565.03;;;16.04;100.00
17260;BME280;8746;49.230;9.220;2023-09-19T04:23:21;99570.44;;;16.02;100.00
17260;BME280;8746;49.230;9.220;2023-09-19T04:25:46;99570.69;;;15.99;100.00
17260;BME280;8746;49.230;9.220;2023-09-19T04:28:12;99578.44;;;16.02;100.00
17260;BME280;8746;49.230;9.220;2023-09-19T04:30:38;99571.31;;;16.03;100.00
17260;BME280;8746;49.230;9.220;2023-09-19T04:33:06;99569.91;;;15.97;100.00
17260;BME280;8746;49.230;9.220;2023-09-19T04:35:31;99581.50;;;15.96;100.00
17260;BME280;8746;49.230;9.220;2023-09-19T04:37:57;99586.00;;;15.96;100.00
17260;BME280;8746;49.230;9.220;2023-09-19T04:40:23;99591.84;;;16.01;100.00
17260;BME280;8746;49.230;9.220;2023-09-19T04:42:58;99591.00;;;16.00;100.00
17260;BME280;8746;49.230;9.220;2023-09-19T04:45:27;99592.59;;;16.03;100.00
17260;BME280;8746;49.230;9.220;2023-09-19T04:47:53;99590.47;;;16.08;100.00
17260;BME280;8746;49.230;9.220;2023-09-19T04:50:19;99602.81;;;16.09;100.00
17260;BME280;8746;49.230;9.220;2023-09-19T04:52:50;99598.75;;;16.03;100.00
17260;BME280;8746;49.230;9.220;2023-09-19T04:55:18;99598.44;;;16.08;100.00
17260;BME280;8746;49.230;9.220;2023-09-19T04:57:45;99604.63;;;16.09;100.00
17260;BME280;8746;49.230;9.220;2023-09-19T05:00:12;99602.06;;;16.07;100.00
17260;BME280;8746;49.230;9.220;2023-09-19T05:02:40;99612.94;;;16.04;100.00
17260;BME280;8746;49.230;9.220;2023-09-19T05:05:07;99605.91;;;16.03;100.00
17260;BME280;8746;49.230;9.220;2023-09-19T05:07:34;99620.28;;;16.00;100.00
17260;BME280;8746;49.230;9.220;2023-09-19T05:09:59;99615.59;;;16.04;100.00
17260;BME280;8746;49.230;9.220;2023-09-19T05:12:26;99621.97;;;16.01;100.00
17260;BME280;8746;49.230;9.220;2023-09-19T05:14:51;99630.16;;;15.98;100.00
17260;BME280;8746;49.230;9.220;2023-09-19T05:17:16;99631.22;;;15.96;100.00
17260;BME280;8746;49.230;9.220;2023-09-19T05:19:42;99629.19;;;15.99;100.00
17260;BME280;8746;49.230;9.220;2023-09-19T05:22:08;99631.75;;;16.01;100.00
17260;BME280;8746;49.230;9.220;2023-09-19T05:24:33;99635.38;;;16.00;100.00
17260;BME280;8746;49.230;9.220;2023-09-19T05:26:58;99626.66;;;15.98;100.00
17260;BME280;8746;49.230;9.220;2023-09-19T05:29:24;99630.06;;;16.13;100.00
17260;BME280;8746;49.230;9.220;2023-09-19T05:31:50;99629.00;;;16.15;100.00
17260;BME280;8746;49.230;9.220;2023-09-19T05:34:16;99635.16;;;16.16;100.00
17260;BME280;8746;49.230;9.220;2023-09-19T05:36:41;99627.31;;;16.14;100.00
17260;BME280;8746;49.230;9.220;2023-09-19T05:39:07;99647.97;;;16.24;100.00
17260;BME280;8746;49.230;9.220;2023-09-19T05:41:35;99643.72;;;16.34;100.00
17260;BME280;8746;49.230;9.220;2023-09-19T05:44:05;99646.88;;;16.39;100.00
17260;BME280;8746;49.230;9.220;2023-09-19T05:46:32;99648.41;;;16.43;100.00
17260;BME280;8746;49.230;9.220;2023-09-19T05:48:57;99650.53;;;16.51;100.00
17260;BME280;8746;49.230;9.220;2023-09-19T05:51:23;99651.59;;;16.48;100.00
17260;BME280;8746;49.230;9.220;2023-09-19T05:53:48;99665.03;;;16.47;100.00
17260;BME280;8746;49.230;9.220;2023-09-19T05:56:14;99663.09;;;16.49;100.00
17260;BME280;8746;49.230;9.220;2023-09-19T05:58:40;99673.50;;;16.39;100.00
17260;BME280;8746;49.230;9.220;2023-09-19T06:01:08;99679.16;;;16.47;100.00
17260;BME280;8746;49.230;9.220;2023-09-19T06:03:34;99679.16;;;16.47;100.00
17260;BME280;8746;49.230;9.220;2023-09-19T06:06:01;99670.97;;;16.50;100.00
17260;BME280;8746;49.230;9.220;2023-09-19T06:08:26;99675.56;;;16.48;100.00
17260;BME280;8746;49.230;9.220;2023-09-19T06:10:51;99688.44;;;16.55;100.00
17260;BME280;8746;49.230;9.220;2023-09-19T06:13:17;99682.69;;;16.61;100.00
17260;BME280;8746;49.230;9.220;2023-09-19T06:15:43;99681.63;;;16.50;100.00
17260;BME280;8746;49.230;9.220;2023-09-19T06:18:11;99683.00;;;16.56;100.00
17260;BME280;8746;49.230;9.220;2023-09-19T06:20:39;99686.75;;;16.66;100.00
17260;BME280;8746;49.230;9.220;2023-09-19T06:23:09;99683.97;;;16.68;100.00
17260;BME280;8746;49.230;9.220;2023-09-19T06:25:35;99684.72;;;16.70;100.00
17260;BME280;8746;49.230;9.220;2023-09-19T06:28:00;99685.69;;;16.69;100.00
17260;BME280;8746;49.230;9.220;2023-09-19T06:30:30;99679.72;;;16.65;100.00
17260;BME280;8746;49.230;9.220;2023-09-19T06:32:59;99686.44;;;16.71;100.00
17260;BME280;8746;49.230;9.220;2023-09-19T06:35:26;99692.16;;;16.78;100.00
17260;BME280;8746;49.230;9.220;2023-09-19T06:37:51;99697.19;;;16.82;100.00
17260;BME280;8746;49.230;9.220;2023-09-19T06:40:18;99699.09;;;16.80;100.00
17260;BME280;8746;49.230;9.220;2023-09-19T06:42:46;99699.31;;;16.77;100.00
17260;BME280;8746;49.230;9.220;2023-09-19T06:45:13;99702.94;;;16.76;100.00
17260;BME280;8746;49.230;9.220;2023-09-19T06:47:43;99712.72;;;16.89;100.00
17260;BME280;8746;49.230;9.220;2023-09-19T06:50:10;99703.78;;;16.90;100.00
17260;BME280;8746;49.230;9.220;2023-09-19T06:52:40;99712.97;;;16.98;100.00
17260;BME280;8746;49.230;9.220;2023-09-19T06:55:05;99715.50;;;17.00;100.00
17260;BME280;8746;49.230;9.220;2023-09-19T06:57:31;99709.09;;;17.16;100.00
17260;BME280;8746;49.230;9.220;2023-09-19T06:59:57;99709.09;;;17.16;100.00
17260;BME280;8746;49.230;9.220;2023-09-19T07:02:22;99725.09;;;17.16;100.00
17260;BME280;8746;49.230;9.220;2023-09-19T07:04:47;99716.53;;;17.23;100.00
17260;BME280;8746;49.230;9.220;2023-09-19T07:07:14;99727.88;;;17.14;100.00
17260;BME280;8746;49.230;9.220;2023-09-19T07:09:40;99726.56;;;17.20;100.00
17260;BME280;8746;49.230;9.220;2023-09-19T07:12:06;99725.22;;;17.14;100.00
17260;BME280;8746;49.230;9.220;2023-09-19T07:14:31;99722.00;;;17.09;100.00
17260;BME280;8746;49.230;9.220;2023-09-19T07:16:57;99721.97;;;17.22;100.00
17260;BME280;8746;49.230;9.220;2023-09-19T07:19:24;99722.44;;;17.16;100.00
17260;BME280;8746;49.230;9.220;2023-09-19T07:21:50;99728.59;;;17.16;100.00
17260;BME280;8746;49.230;9.220;2023-09-19T07:24:15;99736.91;;;17.11;100.00
17260;BME280;8746;49.230;9.220;2023-09-19T07:26:40;99745.13;;;17.08;100.00
17260;BME280;8746;49.230;9.220;2023-09-19T07:29:06;99749.28;;;17.12;100.00
17260;BME280;8746;49.230;9.220;2023-09-19T07:31:32;99754.53;;;17.01;100.00
17260;BME280;8746;49.230;9.220;2023-09-19T07:33:58;99757.59;;;17.08;100.00
17260;BME280;8746;49.230;9.220;2023-09-19T07:36:24;99760.06;;;17.11;100.00
17260;BME280;8746;49.230;9.220;2023-09-19T07:38:49;99771.16;;;17.05;100.00
17260;BME280;8746;49.230;9.220;2023-09-19T07:41:15;99768.91;;;16.98;100.00
17260;BME280;8746;49.230;9.220;2023-09-19T07:43:40;99775.22;;;17.10;100.00
17260;BME280;8746;49.230;9.220;2023-09-19T07:46:06;99781.59;;;17.21;100.00
17260;BME280;8746;49.230;9.220;2023-09-19T07:48:33;99776.97;;;17.36;100.00
17260;BME280;8746;49.230;9.220;2023-09-19T07:51:05;99783.56;;;17.43;100.00
17260;BME280;8746;49.230;9.220;2023-09-19T07:53:32;99772.38;;;17.51;100.00
17260;BME280;8746;49.230;9.220;2023-09-19T07:56:09;99784.44;;;17.43;100.00
17260;BME280;8746;49.230;9.220;2023-09-19T07:58:35;99787.97;;;17.31;98.79
17260;BME280;8746;49.230;9.220;2023-09-19T08:01:06;99779.34;;;17.27;99.11
17260;BME280;8746;49.230;9.220;2023-09-19T08:03:33;99774.22;;;17.37;100.00
17260;BME280;8746;49.230;9.220;2023-09-19T08:05:59;99788.03;;;17.55;99.59
17260;BME280;8746;49.230;9.220;2023-09-19T08:08:26;99789.72;;;17.69;96.78
17260;BME280;8746;49.230;9.220;2023-09-19T08:10:55;99791.31;;;17.59;96.78
17260;BME280;8746;49.230;9.220;2023-09-19T08:13:25;99803.31;;;17.40;97.49
17260;BME280;8746;49.230;9.220;2023-09-19T08:15:51;99798.16;;;17.63;96.17
17260;BME280;8746;49.230;9.220;2023-09-19T08:18:18;99806.00;;;17.77;94.69
17260;BME280;8746;49.230;9.220;2023-09-19T08:20:49;99801.41;;;17.79;92.81
17260;BME280;8746;49.230;9.220;2023-09-19T08:23:15;99804.59;;;17.85;89.98
17260;BME280;8746;49.230;9.220;2023-09-19T08:25:43;99805.47;;;17.85;91.50
17260;BME280;8746;49.230;9.220;2023-09-19T08:28:09;99812.47;;;17.99;89.31
17260;BME280;8746;49.230;9.220;2023-09-19T08:30:37;99825.28;;;17.94;88.34
17260;BME280;8746;49.230;9.220;2023-09-19T08:33:03;99823.28;;;17.98;87.34
17260;BME280;8746;49.230;9.220;2023-09-19T08:35:29;99815.94;;;18.13;86.88
17260;BME280;8746;49.230;9.220;2023-09-19T08:37:55;99808.25;;;18.32;87.05
17260;BME280;8746;49.230;9.220;2023-09-19T08:40:21;99822.53;;;18.20;84.78
17260;BME280;8746;49.230;9.220;2023-09-19T08:42:52;99819.22;;;18.40;85.29
17260;BME280;8746;49.230;9.220;2023-09-19T08:45:21;99814.38;;;18.46;85.42
17260;BME280;8746;49.230;9.220;2023-09-19T08:48:23;99801.97;;;18.33;83.65
17260;BME280;8746;49.230;9.220;2023-09-19T08:51:24;99810.78;;;18.58;84.25
17260;BME280;8746;49.230;9.220;2023-09-19T08:53:55;99820.53;;;18.70;79.69
17260;BME280;8746;49.230;9.220;2023-09-19T08:56:24;99810.91;;;18.56;81.24
17260;BME280;8746;49.230;9.220;2023-09-19T08:58:57;99816.59;;;18.52;82.64
17260;BME280;8746;49.230;9.220;2023-09-19T09:01:27;99816.53;;;18.65;78.60
17260;BME280;8746;49.230;9.220;2023-09-19T09:03:55;99824.19;;;18.69;79.46
17260;BME280;8746;49.230;9.220;2023-09-19T09:06:21;99828.53;;;18.59;79.43
17260;BME280;8746;49.230;9.220;2023-09-19T09:08:47;99827.72;;;18.70;79.24
17260;BME280;8746;49.230;9.220;2023-09-19T09:11:15;99830.25;;;18.71;77.27
17260;BME280;8746;49.230;9.220;2023-09-19T09:13:43;99828.81;;;18.79;78.37
17260;BME280;8746;49.230;9.220;2023-09-19T09:16:10;99826.88;;;18.69;77.82
17260;BME280;8746;49.230;9.220;2023-09-19T09:18:35;99838.81;;;18.88;77.58
17260;BME280;8746;49.230;9.220;2023-09-19T09:21:01;99829.31;;;18.84;75.14
17260;BME280;8746;49.230;9.220;2023-09-19T09:23:27;99839.75;;;18.76;75.74
17260;BME280;8746;49.230;9.220;2023-09-19T09:25:55;99837.28;;;18.97;75.25
17260;BME280;8746;49.230;9.220;2023-09-19T09:28:30;99833.16;;;19.04;75.01
17260;BME280;8746;49.230;9.220;2023-09-19T09:30:57;99836.25;;;19.22;73.74
17260;BME280;8746;49.230;9.220;2023-09-19T09:33:37;99841.31;;;19.02;71.41
17260;BME280;8746;49.230;9.220;2023-09-19T09:36:03;99834.44;;;18.87;72.65
17260;BME280;8746;49.230;9.220;2023-09-19T09:38:43;99841.00;;;18.83;72.48
17260;BME280;8746;49.230;9.220;2023-09-19T09:41:10;99847.66;;;18.77;72.80
17260;BME280;8746;49.230;9.220;2023-09-19T09:43:40;99841.00;;;18.83;73.66
17260;BME280;8746;49.230;9.220;2023-09-19T09:51:49;99839.34;;;19.04;72.48
17260;BME280;8746;49.230;9.220;2023-09-19T09:54:25;99830.16;;;19.31;73.08
17260;BME280;8746;49.230;9.220;2023-09-19T09:57:08;99827.84;;;19.27;71.12
17260;BME280;8746;49.230;9.220;2023-09-19T09:59:55;99827.22;;;19.57;71.47
17260;BME280;8746;49.230;9.220;2023-09-19T10:02:30;99821.53;;;19.50;70.30
17260;BME280;8746;49.230;9.220;2023-09-19T10:05:11;99826.25;;;19.69;71.33
17260;BME280;8746;49.230;9.220;2023-09-19T10:07:53;99829.91;;;19.80;69.88
17260;BME280;8746;49.230;9.220;2023-09-19T10:10:35;99824.22;;;20.17;68.67
17260;BME280;8746;49.230;9.220;2023-09-19T10:13:05;99826.47;;;20.33;65.49
17260;BME280;8746;49.230;9.220;2023-09-19T10:15:33;99817.94;;;20.39;65.12
17260;BME280;8746;49.230;9.220;2023-09-19T10:18:04;99818.81;;;20.61;66.44
17260;BME280;8746;49.230;9.220;2023-09-19T10:20:30;99828.72;;;20.49;64.20
17260;BME280;8746;49.230;9.220;2023-09-19T10:22:56;99825.38;;;20.68;66.19
17260;BME280;8746;49.230;9.220;2023-09-19T10:25:26;99823.41;;;20.70;63.34
17260;BME280;8746;49.230;9.220;2023-09-19T10:27:54;99816.09;;;20.72;62.82
17260;BME280;8746;49.230;9.220;2023-09-19T10:30:22;99819.13;;;20.79;62.50
17260;BME280;8746;49.230;9.220;2023-09-19T10:32:57;99825.53;;;20.88;62.62
17260;BME280;8746;49.230;9.220;2023-09-19T10:35:23;99820.75;;;20.91;63.37
17260;BME280;8746;49.230;9.220;2023-09-19T10:37:50;99814.03;;;20.97;62.29
17260;BME280;8746;49.230;9.220;2023-09-19T10:40:18;99815.59;;;21.30;63.07
17260;BME280;8746;49.230;9.220;2023-09-19T10:42:48;99808.00;;;21.36;59.96
17260;BME280;8746;49.230;9.220;2023-09-19T10:45:16;99811.00;;;21.83;60.34
17260;BME280;8746;49.230;9.220;2023-09-19T10:47:43;99812.31;;;21.99;55.88
17260;BME280;8746;49.230;9.220;2023-09-19T10:50:08;99807.00;;;22.57;56.39
17260;BME280;8746;49.230;9.220;2023-09-19T10:52:40;99816.78;;;22.49;56.88
17260;BME280;8746;49.230;9.220;2023-09-19T10:55:08;99813.91;;;22.21;57.81
17260;BME280;8746;49.230;9.220;2023-09-19T10:57:35;99821.34;;;21.88;56.35
17260;BME280;8746;49.230;9.220;2023-09-19T11:00:06;99815.25;;;21.14;56.04
17260;BME280;8746;49.230;9.220;2023-09-19T11:05:41;99804.31;;;21.37;58.12
17260;BME280;8746;49.230;9.220;2023-09-19T11:08:08;99797.72;;;21.82;54.91
17260;BME280;8746;49.230;9.220;2023-09-19T11:10:47;99810.97;;;21.73;55.67
17260;BME280;8746;49.230;9.220;2023-09-19T11:13:30;99807.38;;;21.22;56.93
17260;BME280;8746;49.230;9.220;2023-09-19T11:16:03;99804.63;;;21.34;55.09
17260;BME280;8746;49.230;9.220;2023-09-19T11:26:48;99790.88;;;22.57;52.12
17260;BME280;8746;49.230;9.220;2023-09-19T11:29:26;99803.94;;;21.92;53.84
17260;BME280;8746;49.230;9.220;2023-09-19T11:31:53;99797.47;;;21.54;53.10
17260;BME280;8746;49.230;9.220;2023-09-19T11:40:05;99783.63;;;22.68;52.35
17260;BME280;8746;49.230;9.220;2023-09-19T11:42:47;99777.09;;;22.80;51.38
17260;BME280;8746;49.230;9.220;2023-09-19T11:48:23;99785.84;;;22.92;50.15
17260;BME280;8746;49.230;9.220;2023-09-19T11:50:51;99785.63;;;22.66;50.30
17260;BME280;8746;49.230;9.220;2023-09-19T11:53:17;99778.13;;;22.40;51.21
17260;BME280;8746;49.230;9.220;2023-09-19T11:55:45;99780.81;;;22.40;51.98
17260;BME280;8746;49.230;9.220;2023-09-19T11:58:11;99776.56;;;22.47;51.39
17260;BME280;8746;49.230;9.220;2023-09-19T12:00:39;99776.28;;;22.70;52.10
17260;BME280;8746;49.230;9.220;2023-09-19T12:03:10;99772.91;;;22.48;51.05
17260;BME280;8746;49.230;9.220;2023-09-19T12:05:37;99778.00;;;22.51;52.25
17260;BME280;8746;49.230;9.220;2023-09-19T12:08:07;99775.44;;;22.50;51.17
17260;BME280;8746;49.230;9.220;2023-09-19T12:10:47;99767.53;;;22.48;51.92
17260;BME280;8746;49.230;9.220;2023-09-19T12:13:16;99767.25;;;22.41;52.18
17260;BME280;8746;49.230;9.220;2023-09-19T12:15:42;99758.03;;;22.34;51.14
17260;BME280;8746;49.230;9.220;2023-09-19T12:18:10;99761.31;;;22.38;51.18
17260;BME280;8746;49.230;9.220;2023-09-19T12:20:50;99756.91;;;22.47;51.24
17260;BME280;8746;49.230;9.220;2023-09-19T12:23:17;99761.28;;;22.57;51.32
17260;BME280;8746;49.230;9.220;2023-09-19T12:25:43;99761.72;;;22.23;52.54
17260;BME280;8746;49.230;9.220;2023-09-19T12:28:17;99757.59;;;21.80;51.20
17260;BME280;8746;49.230;9.220;2023-09-19T12:30:43;99767.75;;;21.67;52.43
17260;BME280;8746;49.230;9.220;2023-09-19T12:33:16;99765.09;;;21.45;53.87
17260;BME280;8746;49.230;9.220;2023-09-19T12:35:44;99760.88;;;21.12;54.88
17260;BME280;8746;49.230;9.220;2023-09-19T12:38:10;99756.41;;;21.22;53.99
17260;BME280;8746;49.230;9.220;2023-09-19T12:40:37;99755.78;;;21.40;54.79
17260;BME280;8746;49.230;9.220;2023-09-19T12:43:03;99740.66;;;21.39;55.15
17260;BME280;8746;49.230;9.220;2023-09-19T12:45:33;99746.28;;;21.76;54.23
17260;BME280;8746;49.230;9.220;2023-09-19T12:48:25;99752.34;;;21.88;55.46
17260;BME280;8746;49.230;9.220;2023-09-19T12:51:10;99739.22;;;21.75;54.60
17260;BME280;8746;49.230;9.220;2023-09-19T12:53:41;99739.19;;;21.66;54.31
17260;BME280;8746;49.230;9.220;2023-09-19T12:56:16;99736.19;;;21.59;54.89
17260;BME280;8746;49.230;9.220;2023-09-19T12:58:56;99734.91;;;21.53;54.81
17260;BME280;8746;49.230;9.220;2023-09-19T13:01:24;99734.56;;;21.37;54.40
17260;BME280;8746;49.230;9.220;2023-09-19T13:04:18;99735.69;;;21.34;54.44
17260;BME280;8746;49.230;9.220;2023-09-19T13:06:48;99729.31;;;21.25;54.58
17260;BME280;8746;49.230;9.220;2023-09-19T13:09:15;99735.41;;;21.37;55.64
17260;BME280;8746;49.230;9.220;2023-09-19T13:11:41;99747.16;;;21.46;55.60
17260;BME280;8746;49.230;9.220;2023-09-19T13:17:01;99733.41;;;21.29;54.27
17260;BME280;8746;49.230;9.220;2023-09-19T13:19:43;99733.13;;;21.23;55.53
17260;BME280;8746;49.230;9.220;2023-09-19T13:22:36;99730.59;;;21.41;55.14
17260;BME280;8746;49.230;9.220;2023-09-19T13:25:04;99725.28;;;21.10;55.72
17260;BME280;8746;49.230;9.220;2023-09-19T13:27:29;99728.00;;;21.20;56.25
17260;BME280;8746;49.230;9.220;2023-09-19T13:29:54;99722.16;;;21.45;57.23
17260;BME280;8746;49.230;9.220;2023-09-19T13:32:20;99719.94;;;21.60;55.56
17260;BME280;8746;49.230;9.220;2023-09-19T13:34:45;99721.00;;;21.79;55.17
17260;BME280;8746;49.230;9.220;2023-09-19T13:37:11;99713.78;;;21.89;54.39
17260;BME280;8746;49.230;9.220;2023-09-19T13:39:38;99710.38;;;21.97;54.00
17260;BME280;8746;49.230;9.220;2023-09-19T13:42:08;99706.28;;;22.22;54.94
17260;BME280;8746;49.230;9.220;2023-09-19T13:44:37;99720.84;;;22.20;54.17
17260;BME280;8746;49.230;9.220;2023-09-19T13:47:02;99707.25;;;22.12;53.29
17260;BME280;8746;49.230;9.220;2023-09-19T13:49:31;99708.25;;;22.20;53.56
17260;BME280;8746;49.230;9.220;2023-09-19T13:51:57;99702.47;;;22.05;53.10
17260;BME280;8746;49.230;9.220;2023-09-19T13:54:23;99700.34;;;22.19;53.68